createdAt,value
2019-05-16T00:00:49.647Z,51.17
2019-05-16T00:01:48.875Z,51.64
2019-05-16T00:02:48.474Z,51.04
2019-05-16T00:03:49.030Z,51.25
2019-05-16T00:04:48.452Z,51.67
2019-05-16T00:05:54.235Z,51.87
2019-05-16T00:06:49.431Z,52.17
2019-05-16T00:07:49.162Z,51.94
2019-05-16T00:08:48.408Z,51.57
2019-05-16T00:09:48.447Z,52.04
2019-05-16T00:10:48.786Z,52.25
2019-05-16T00:11:48.759Z,51.64
2019-05-16T00:12:48.758Z,51.57
2019-05-16T00:13:48.968Z,51.57
2019-05-16T00:14:48.946Z,52.14
2019-05-16T00:15:48.334Z,51.87
2019-05-16T00:16:48.492Z,52.37
2019-05-16T00:17:48.924Z,52.77
2019-05-16T00:18:48.302Z,52.47
2019-05-16T00:19:48.491Z,53.37
2019-05-16T00:20:49.239Z,53.07
2019-05-16T00:21:48.776Z,53.07
2019-05-16T00:22:48.592Z,52.87
2019-05-16T00:23:48.723Z,52.87
2019-05-16T00:24:48.774Z,53.17
2019-05-16T00:25:48.227Z,53.17
2019-05-16T00:26:48.219Z,53.47
2019-05-16T00:27:48.211Z,52.47
2019-05-16T00:28:48.562Z,53.27
2019-05-16T00:29:48.770Z,53.17
2019-05-16T00:30:48.818Z,53.67
2019-05-16T00:31:48.655Z,53.27
2019-05-16T00:32:48.370Z,53.27
2019-05-16T00:33:48.752Z,53.17
2019-05-16T00:34:48.134Z,53.77
2019-05-16T00:35:51.944Z,53.17
2019-05-16T00:36:49.111Z,53.07
2019-05-16T00:37:48.565Z,53.37
2019-05-16T00:38:48.495Z,53.57
2019-05-16T00:39:48.305Z,53.17
2019-05-16T00:40:48.748Z,53.37
2019-05-16T00:41:48.055Z,53.87
2019-05-16T00:42:49.235Z,53.57
2019-05-16T00:43:48.654Z,53.17
2019-05-16T00:44:48.039Z,53.67
2019-05-16T00:45:48.641Z,53.37
2019-05-16T00:46:48.613Z,54.17
2019-05-16T00:47:48.224Z,53.37
2019-05-16T00:48:48.750Z,53.47
2019-05-16T00:49:48.164Z,53.47
2019-05-16T00:50:48.213Z,53.47
2019-05-16T00:51:48.125Z,54.37
2019-05-16T00:52:48.758Z,55.17
2019-05-16T00:53:48.433Z,55.66
2019-05-16T00:54:48.656Z,56.07
2019-05-16T00:55:48.110Z,56.46
2019-05-16T00:56:48.699Z,55.77
2019-05-16T00:57:48.231Z,56.07
2019-05-16T00:58:48.427Z,55.66
2019-05-16T00:59:48.529Z,55.87
2019-05-16T01:00:50.027Z,55.99
2019-05-16T01:01:50.101Z,55.79
2019-05-16T01:02:48.600Z,55.89
2019-05-16T01:03:48.353Z,56.39
2019-05-16T01:04:48.687Z,56.39
2019-05-16T01:05:48.188Z,56.37
2019-05-16T01:06:48.450Z,56.39
2019-05-16T01:07:48.134Z,56.59
2019-05-16T01:08:48.797Z,56.29
2019-05-16T01:09:48.806Z,56.39
2019-05-16T01:10:48.488Z,56.39
2019-05-16T01:11:48.660Z,56.89
2019-05-16T01:12:48.173Z,57.39
2019-05-16T01:13:48.770Z,57.59
2019-05-16T01:14:47.900Z,57.19
2019-05-16T01:15:48.569Z,57.19
2019-05-16T01:16:48.781Z,56.99
2019-05-16T01:17:48.344Z,56.89
2019-05-16T01:18:48.589Z,57.69
2019-05-16T01:19:48.435Z,57.69
2019-05-16T01:20:48.174Z,57.07
2019-05-16T01:21:48.390Z,56.79
2019-05-16T01:22:48.988Z,56.99
2019-05-16T01:23:48.214Z,57.79
2019-05-16T01:24:49.237Z,58.00
2019-05-16T01:25:48.394Z,58.00
2019-05-16T01:26:48.449Z,58.00
2019-05-16T01:27:47.738Z,57.89
2019-05-16T01:28:48.356Z,58.19
2019-05-16T01:29:47.794Z,58.49
2019-05-16T01:30:48.879Z,58.69
2019-05-16T01:31:48.401Z,58.59
2019-05-16T01:32:49.195Z,58.39
2019-05-16T01:33:47.844Z,58.80
2019-05-16T01:34:48.348Z,58.49
2019-05-16T01:35:47.846Z,58.89
2019-05-16T01:36:48.581Z,59.39
2019-05-16T01:37:48.784Z,58.59
2019-05-16T01:38:48.058Z,58.59
2019-05-16T01:39:48.424Z,58.69
2019-05-16T01:40:49.099Z,58.49
2019-05-16T01:41:48.121Z,58.49
2019-05-16T01:42:48.963Z,58.00
2019-05-16T01:43:48.400Z,58.09
2019-05-16T01:44:48.739Z,58.49
2019-05-16T01:45:48.749Z,58.19
2019-05-16T01:46:48.062Z,58.09
2019-05-16T01:47:48.261Z,58.29
2019-05-16T01:48:48.531Z,58.59
2019-05-16T01:49:48.817Z,58.49
2019-05-16T01:50:48.099Z,58.19
2019-05-16T01:51:48.448Z,58.39
2019-05-16T01:52:48.736Z,58.39
2019-05-16T01:53:48.824Z,58.00
2019-05-16T01:54:48.115Z,58.49
2019-05-16T01:55:48.923Z,58.49
2019-05-16T01:56:48.091Z,58.19
2019-05-16T01:57:48.153Z,58.69
2019-05-16T01:58:49.034Z,58.89
2019-05-16T01:59:48.584Z,58.80
2019-05-16T02:00:58.818Z,58.59
2019-05-16T02:01:48.487Z,59.09
2019-05-16T02:02:48.743Z,58.80
2019-05-16T02:03:48.105Z,58.99
2019-05-16T02:04:48.492Z,58.80
2019-05-16T02:05:48.067Z,59.19
2019-05-16T02:06:54.231Z,58.80
2019-05-16T02:07:48.233Z,59.19
2019-05-16T02:08:48.700Z,59.30
2019-05-16T02:09:47.653Z,58.89
2019-05-16T02:10:47.829Z,59.59
2019-05-16T02:11:48.161Z,59.59
2019-05-16T02:12:49.042Z,59.59
2019-05-16T02:13:48.456Z,59.30
2019-05-16T02:14:48.067Z,59.59
2019-05-16T02:15:48.821Z,59.19
2019-05-16T02:16:47.734Z,60.49
2019-05-16T02:17:48.554Z,60.59
2019-05-16T02:18:48.895Z,60.69
2019-05-16T02:19:48.550Z,60.99
2019-05-16T02:20:47.921Z,60.79
2019-05-16T02:21:47.645Z,61.49
2019-05-16T02:22:48.168Z,60.89
2019-05-16T02:23:49.016Z,60.69
2019-05-16T02:24:48.010Z,60.79
2019-05-16T02:25:48.942Z,60.79
2019-05-16T02:26:49.309Z,60.99
2019-05-16T02:27:48.829Z,62.09
2019-05-16T02:28:46.891Z,60.69
2019-05-16T02:29:46.883Z,60.99
2019-05-16T02:30:46.890Z,60.99
2019-05-16T02:31:46.860Z,61.09
2019-05-16T02:32:46.850Z,60.79
2019-05-16T02:33:46.838Z,60.79
2019-05-16T02:34:46.827Z,61.79
2019-05-16T02:35:46.827Z,61.49
2019-05-16T02:36:46.806Z,61.19
2019-05-16T02:37:46.795Z,61.49
2019-05-16T02:38:46.787Z,60.99
2019-05-16T02:39:46.778Z,61.19
2019-05-16T02:40:46.766Z,61.29
2019-05-16T02:41:46.754Z,61.19
2019-05-16T02:42:46.745Z,61.79
2019-05-16T02:43:46.730Z,61.40
2019-05-16T02:44:46.720Z,61.40
2019-05-16T02:45:46.714Z,61.69
2019-05-16T02:46:46.696Z,60.69
2019-05-16T02:47:46.687Z,61.09
2019-05-16T02:48:46.695Z,61.89
2019-05-16T02:49:46.674Z,62.09
2019-05-16T02:50:46.656Z,61.49
2019-05-16T02:51:46.648Z,61.62
2019-05-16T02:52:46.639Z,61.09
2019-05-16T02:53:46.627Z,60.89
2019-05-16T02:54:46.616Z,61.59
2019-05-16T02:55:46.628Z,61.49
2019-05-16T02:56:46.592Z,60.99
2019-05-16T02:57:46.586Z,60.99
2019-05-16T02:58:46.572Z,60.99
2019-05-16T02:59:46.560Z,60.99
2019-05-16T03:00:46.554Z,61.19
2019-05-16T03:01:46.539Z,61.42
2019-05-16T03:02:46.529Z,61.89
2019-05-16T03:03:46.524Z,62.09
2019-05-16T03:04:46.509Z,62.19
2019-05-16T03:05:46.496Z,62.29
2019-05-16T03:06:46.488Z,61.89
2019-05-16T03:07:47.477Z,61.99
2019-05-16T03:08:46.462Z,61.99
2019-05-16T03:09:46.456Z,62.22
2019-05-16T03:10:46.442Z,62.02
2019-05-16T03:11:46.432Z,62.19
2019-05-16T03:12:46.430Z,61.40
2019-05-16T03:13:46.408Z,62.22
2019-05-16T03:14:46.400Z,62.12
2019-05-16T03:15:46.391Z,62.82
2019-05-16T03:16:46.381Z,62.42
2019-05-16T03:17:46.367Z,62.62
2019-05-16T03:18:46.358Z,62.92
2019-05-16T03:19:46.343Z,62.32
2019-05-16T03:20:46.336Z,62.79
2019-05-16T03:21:46.328Z,62.59
2019-05-16T03:22:46.329Z,62.82
2019-05-16T03:23:46.303Z,62.79
2019-05-16T03:24:46.289Z,61.09
2019-05-16T03:25:46.281Z,62.32
2019-05-16T03:26:46.268Z,62.62
2019-05-16T03:27:46.257Z,61.32
2019-05-16T03:28:46.249Z,61.99
2019-05-16T03:29:46.241Z,62.09
2019-05-16T03:30:46.239Z,62.22
2019-05-16T03:31:46.215Z,62.32
2019-05-16T03:32:46.281Z,62.59
2019-05-16T03:33:52.129Z,62.62
2019-05-16T03:34:47.186Z,62.89
2019-05-16T03:35:46.176Z,62.39
2019-05-16T03:36:46.181Z,63.12
2019-05-16T03:37:55.649Z,62.42
2019-05-16T03:38:47.141Z,63.12
2019-05-16T03:39:46.131Z,62.89
2019-05-16T03:40:46.120Z,63.22
2019-05-16T03:41:46.115Z,63.19
2019-05-16T03:42:46.097Z,63.12
2019-05-16T03:43:46.086Z,63.29
2019-05-16T03:44:46.082Z,63.69
2019-05-16T03:45:46.065Z,63.42
2019-05-16T03:46:46.058Z,63.39
2019-05-16T03:47:46.044Z,63.79
2019-05-16T03:48:46.033Z,63.19
2019-05-16T03:49:46.023Z,63.62
2019-05-16T03:50:46.012Z,63.12
2019-05-16T03:51:46.002Z,63.42
2019-05-16T03:52:46.044Z,63.32
2019-05-16T03:53:45.982Z,63.22
2019-05-16T03:54:45.967Z,63.22
2019-05-16T03:55:45.961Z,63.12
2019-05-16T03:56:45.947Z,63.53
2019-05-16T03:57:45.941Z,63.02
2019-05-16T03:58:45.926Z,64.03
2019-05-16T03:59:45.925Z,63.32
2019-05-16T04:00:46.022Z,63.42
2019-05-16T04:01:45.894Z,63.32
2019-05-16T04:02:45.946Z,63.32
2019-05-16T04:03:45.871Z,63.12
2019-05-16T04:04:45.863Z,63.02
2019-05-16T04:05:45.854Z,63.32
2019-05-16T04:06:45.840Z,63.22
2019-05-16T04:07:45.838Z,63.12
2019-05-16T04:08:45.819Z,63.02
2019-05-16T04:09:45.808Z,63.02
2019-05-16T04:10:45.801Z,63.22
2019-05-16T04:11:45.787Z,63.42
2019-05-16T04:12:45.833Z,63.22
2019-05-16T04:13:45.768Z,63.32
2019-05-16T04:14:45.757Z,63.02
2019-05-16T04:15:45.749Z,63.53
2019-05-16T04:16:45.737Z,63.32
2019-05-16T04:17:45.721Z,63.62
2019-05-16T04:18:45.711Z,63.42
2019-05-16T04:19:45.701Z,63.53
2019-05-16T04:20:45.690Z,63.32
2019-05-16T04:21:45.688Z,63.82
2019-05-16T04:22:45.670Z,63.72
2019-05-16T04:23:45.658Z,63.53
2019-05-16T04:24:45.647Z,63.12
2019-05-16T04:25:45.638Z,63.53
2019-05-16T04:26:45.627Z,63.32
2019-05-16T04:27:45.616Z,63.22
2019-05-16T04:28:45.606Z,63.32
2019-05-16T04:29:45.593Z,63.12
2019-05-16T04:30:45.588Z,63.22
2019-05-16T04:31:45.573Z,63.62
2019-05-16T04:32:45.561Z,63.32
2019-05-16T04:33:45.566Z,63.22
2019-05-16T04:34:45.541Z,63.22
2019-05-16T04:35:45.532Z,63.32
2019-05-16T04:36:45.524Z,63.22
2019-05-16T04:37:45.509Z,63.53
2019-05-16T04:38:46.886Z,63.42
2019-05-16T04:39:45.486Z,63.53
2019-05-16T04:40:45.496Z,63.32
2019-05-16T04:41:45.466Z,63.22
2019-05-16T04:42:45.456Z,63.32
2019-05-16T04:43:45.445Z,63.32
2019-05-16T04:44:45.446Z,63.32
2019-05-16T04:45:45.435Z,63.32
2019-05-16T04:46:45.412Z,63.02
2019-05-16T04:47:45.402Z,63.22
2019-05-16T04:48:45.391Z,63.22
2019-05-16T04:49:45.384Z,63.12
2019-05-16T04:50:45.370Z,63.42
2019-05-16T04:51:45.362Z,63.06
2019-05-16T04:52:45.349Z,62.62
2019-05-16T04:53:45.338Z,58.92
2019-05-16T04:54:45.327Z,58.15
2019-05-16T04:55:45.319Z,57.05
2019-05-16T04:56:45.310Z,57.42
2019-05-16T04:57:45.318Z,57.32
2019-05-16T04:58:45.285Z,57.42
2019-05-16T04:59:45.274Z,57.45
2019-05-16T05:00:45.262Z,57.12
2019-05-16T05:01:45.253Z,57.55
2019-05-16T05:02:45.241Z,57.52
2019-05-16T05:04:00.383Z,57.45
2019-05-16T05:04:46.220Z,56.85
2019-05-16T05:05:45.216Z,56.74
2019-05-16T05:06:45.199Z,57.05
2019-05-16T05:07:45.190Z,57.15
2019-05-16T05:08:53.829Z,57.05
2019-05-16T05:09:46.164Z,56.95
2019-05-16T05:10:45.157Z,56.95
2019-05-16T05:11:45.144Z,57.42
2019-05-16T05:12:45.144Z,56.92
2019-05-16T05:13:45.130Z,56.95
2019-05-16T05:14:45.115Z,57.15
2019-05-16T05:15:45.103Z,57.45
2019-05-16T05:16:45.095Z,57.75
2019-05-16T05:17:45.080Z,57.24
2019-05-16T05:18:45.074Z,58.05
2019-05-16T05:19:45.065Z,58.35
2019-05-16T05:20:45.049Z,57.24
2019-05-16T05:21:45.038Z,56.85
2019-05-16T05:22:45.026Z,57.15
2019-05-16T05:23:45.021Z,56.85
2019-05-16T05:24:45.007Z,56.45
2019-05-16T05:25:45.025Z,56.24
2019-05-16T05:26:44.984Z,56.74
2019-05-16T05:27:44.975Z,56.35
2019-05-16T05:28:44.962Z,56.65
2019-05-16T05:29:44.960Z,56.55
2019-05-16T05:30:44.940Z,56.55
2019-05-16T05:31:45.690Z,56.35
2019-05-16T05:32:44.918Z,56.74
2019-05-16T05:33:44.907Z,56.45
2019-05-16T05:34:44.929Z,56.24
2019-05-16T05:35:44.898Z,56.65
2019-05-16T05:36:44.875Z,56.85
2019-05-16T05:37:44.865Z,56.45
2019-05-16T05:38:44.856Z,56.65
2019-05-16T05:39:44.844Z,56.65
2019-05-16T05:40:44.837Z,56.55
2019-05-16T05:41:44.826Z,56.15
2019-05-16T05:42:44.815Z,56.74
2019-05-16T05:43:44.800Z,56.65
2019-05-16T05:44:44.789Z,56.24
2019-05-16T05:45:44.779Z,56.55
2019-05-16T05:46:44.772Z,56.35
2019-05-16T05:47:44.763Z,56.65
2019-05-16T05:48:44.748Z,56.45
2019-05-16T05:49:44.736Z,56.35
2019-05-16T05:50:44.725Z,56.65
2019-05-16T05:51:45.247Z,56.65
2019-05-16T05:52:46.238Z,56.45
2019-05-16T05:53:44.692Z,56.45
2019-05-16T05:54:44.681Z,56.48
2019-05-16T05:55:44.668Z,56.55
2019-05-16T05:56:44.659Z,56.55
2019-05-16T05:57:44.646Z,56.27
2019-05-16T05:58:44.642Z,56.45
2019-05-16T05:59:44.630Z,56.35
2019-05-16T06:00:44.614Z,56.05
2019-05-16T06:01:44.607Z,56.55
2019-05-16T06:02:44.595Z,56.35
2019-05-16T06:03:44.584Z,56.48
2019-05-16T06:04:44.573Z,56.37
2019-05-16T06:05:44.567Z,56.55
2019-05-16T06:06:45.148Z,56.65
2019-05-16T06:07:44.537Z,56.45
2019-05-16T06:08:44.528Z,56.74
2019-05-16T06:09:53.559Z,56.37
2019-05-16T06:10:45.505Z,56.45
2019-05-16T06:11:44.494Z,56.24
2019-05-16T06:12:44.484Z,56.35
2019-05-16T06:13:44.472Z,56.45
2019-05-16T06:14:44.464Z,56.67
2019-05-16T06:15:44.452Z,56.65
2019-05-16T06:16:44.440Z,56.45
2019-05-16T06:17:44.428Z,56.45
2019-05-16T06:18:44.425Z,56.55
2019-05-16T06:19:44.407Z,56.35
2019-05-16T06:20:44.416Z,56.55
2019-05-16T06:21:45.519Z,56.57
2019-05-16T06:22:44.374Z,56.85
2019-05-16T06:23:44.364Z,56.37
2019-05-16T06:24:44.352Z,56.35
2019-05-16T06:25:44.345Z,56.48
2019-05-16T06:26:44.334Z,56.57
2019-05-16T06:27:44.323Z,56.37
2019-05-16T06:28:44.315Z,56.37
2019-05-16T06:29:44.296Z,56.24
2019-05-16T06:30:44.289Z,56.48
2019-05-16T06:31:44.276Z,56.67
2019-05-16T06:32:44.263Z,56.57
2019-05-16T06:33:44.258Z,56.74
2019-05-16T06:34:44.253Z,56.67
2019-05-16T06:35:44.234Z,56.77
2019-05-16T06:36:44.219Z,56.67
2019-05-16T06:37:44.208Z,57.28
2019-05-16T06:38:44.243Z,56.74
2019-05-16T06:39:45.400Z,56.87
2019-05-16T06:40:44.176Z,57.17
2019-05-16T06:41:44.165Z,57.28
2019-05-16T06:42:44.158Z,56.87
2019-05-16T06:43:44.163Z,57.28
2019-05-16T06:44:44.136Z,57.24
2019-05-16T06:45:44.122Z,57.15
2019-05-16T06:46:59.608Z,57.45
2019-05-16T06:47:45.098Z,56.98
2019-05-16T06:48:44.097Z,57.07
2019-05-16T06:49:44.082Z,57.17
2019-05-16T06:50:44.067Z,57.05
2019-05-16T06:51:44.057Z,57.28
2019-05-16T06:52:45.801Z,57.87
2019-05-16T06:53:44.042Z,58.45
2019-05-16T06:54:44.035Z,56.87
2019-05-16T06:55:44.015Z,57.37
2019-05-16T06:56:44.010Z,57.45
2019-05-16T06:57:43.998Z,57.15
2019-05-16T06:58:48.307Z,57.28
2019-05-16T06:59:45.036Z,56.87
2019-05-16T07:00:43.965Z,57.24
2019-05-16T07:01:43.949Z,59.15
2019-05-16T07:02:43.942Z,59.68
2019-05-16T07:03:43.928Z,59.65
2019-05-16T07:04:43.917Z,59.45
2019-05-16T07:05:43.905Z,59.35
2019-05-16T07:06:56.264Z,60.28
2019-05-16T07:07:44.882Z,60.28
2019-05-16T07:08:43.876Z,60.45
2019-05-16T07:09:57.213Z,60.65
2019-05-16T07:10:44.850Z,61.05
2019-05-16T07:11:43.839Z,61.08
2019-05-16T07:12:43.828Z,60.85
2019-05-16T07:13:43.825Z,61.05
2019-05-16T07:14:43.806Z,61.15
2019-05-16T07:15:43.805Z,61.85
2019-05-16T07:16:43.842Z,62.15
2019-05-16T07:17:43.822Z,61.98
2019-05-16T07:18:43.765Z,61.05
2019-05-16T07:19:43.751Z,61.35
2019-05-16T07:20:43.764Z,61.25
2019-05-16T07:21:43.733Z,61.55
2019-05-16T07:22:43.835Z,61.95
2019-05-16T07:23:43.709Z,62.25
2019-05-16T07:24:43.701Z,62.05
2019-05-16T07:25:43.687Z,62.55
2019-05-16T07:26:43.676Z,62.35
2019-05-16T07:27:43.664Z,62.95
2019-05-16T07:28:43.653Z,62.85
2019-05-16T07:29:43.662Z,63.06
2019-05-16T07:30:43.633Z,62.55
2019-05-16T07:31:43.620Z,62.85
2019-05-16T07:32:43.609Z,63.06
2019-05-16T07:33:43.598Z,63.06
2019-05-16T07:34:43.589Z,62.65
2019-05-16T07:35:43.577Z,63.06
2019-05-16T07:36:43.569Z,62.65
2019-05-16T07:37:43.556Z,62.85
2019-05-16T07:38:43.545Z,63.15
2019-05-16T07:39:43.534Z,63.15
2019-05-16T07:40:43.521Z,63.35
2019-05-16T07:41:43.514Z,63.35
2019-05-16T07:42:43.500Z,63.45
2019-05-16T07:43:43.489Z,63.25
2019-05-16T07:44:43.483Z,63.15
2019-05-16T07:45:43.471Z,63.35
2019-05-16T07:46:44.756Z,63.75
2019-05-16T07:47:43.454Z,63.75
2019-05-16T07:48:43.435Z,63.45
2019-05-16T07:49:43.423Z,63.85
2019-05-16T07:50:43.420Z,59.15
2019-05-16T07:51:43.402Z,62.05
2019-05-16T07:52:43.405Z,62.85
2019-05-16T07:53:43.380Z,62.45
2019-05-16T07:54:43.368Z,61.92
2019-05-16T07:55:43.360Z,61.25
2019-05-16T07:56:43.357Z,61.35
2019-05-16T07:57:43.336Z,61.65
2019-05-16T07:58:43.330Z,61.05
2019-05-16T07:59:43.313Z,60.22
2019-05-16T08:00:52.540Z,60.45
2019-05-16T08:01:44.291Z,60.25
2019-05-16T08:02:43.282Z,59.45
2019-05-16T08:03:44.175Z,59.45
2019-05-16T08:04:43.262Z,59.15
2019-05-16T08:05:43.250Z,58.75
2019-05-16T08:06:43.238Z,58.75
2019-05-16T08:07:43.227Z,58.05
2019-05-16T08:08:43.223Z,56.85
2019-05-16T08:09:43.206Z,57.05
2019-05-16T08:10:46.495Z,57.45
2019-05-16T08:11:43.182Z,57.15
2019-05-16T08:12:43.183Z,57.24
2019-05-16T08:13:43.331Z,56.95
2019-05-16T08:14:43.152Z,57.05
2019-05-16T08:15:43.143Z,57.15
2019-05-16T08:16:43.128Z,56.95
2019-05-16T08:17:44.600Z,57.45
2019-05-16T08:18:45.275Z,57.24
2019-05-16T08:19:43.102Z,56.55
2019-05-16T08:20:43.085Z,56.55
2019-05-16T08:21:43.073Z,56.55
2019-05-16T08:22:43.063Z,56.45
2019-05-16T08:23:43.054Z,56.45
2019-05-16T08:24:43.050Z,56.65
2019-05-16T08:25:43.031Z,56.05
2019-05-16T08:26:43.371Z,56.65
2019-05-16T08:27:43.009Z,56.55
2019-05-16T08:28:42.998Z,55.94
2019-05-16T08:29:42.992Z,55.85
2019-05-16T08:30:42.981Z,56.05
2019-05-16T08:31:43.320Z,56.15
2019-05-16T08:32:42.959Z,56.15
2019-05-16T08:33:42.951Z,55.74
2019-05-16T08:34:42.933Z,55.35
2019-05-16T08:35:42.923Z,55.35
2019-05-16T08:36:42.916Z,55.55
2019-05-16T08:38:43.890Z,55.35
2019-05-16T08:39:42.882Z,55.05
2019-05-16T08:41:04.768Z,54.97
2019-05-16T08:41:43.857Z,55.05
2019-05-16T08:42:42.848Z,55.24
2019-05-16T08:43:42.859Z,55.15
2019-05-16T08:44:42.826Z,55.15
2019-05-16T08:45:42.815Z,55.05
2019-05-16T08:46:42.803Z,55.15
2019-05-16T08:47:43.052Z,55.77
2019-05-16T08:48:42.788Z,54.85
2019-05-16T08:49:42.772Z,55.17
2019-05-16T08:50:05.380Z,54.85
2019-05-16T08:50:50.356Z,55.44
2019-05-16T08:51:43.749Z,54.57
2019-05-16T08:52:43.760Z,54.55
2019-05-16T08:53:44.862Z,54.77
2019-05-16T08:54:43.994Z,54.85
2019-05-16T08:55:43.510Z,53.74
2019-05-16T08:56:44.466Z,53.85
2019-05-16T08:57:42.685Z,54.24
2019-05-16T08:58:42.789Z,53.44
2019-05-16T08:59:42.666Z,53.57
2019-05-16T09:00:42.690Z,54.44
2019-05-16T09:01:50.763Z,54.24
2019-05-16T09:02:43.837Z,54.57
2019-05-16T09:03:42.680Z,55.37
2019-05-16T09:04:44.304Z,54.85
2019-05-16T09:05:43.688Z,55.15
2019-05-16T09:06:42.885Z,54.94
2019-05-16T09:07:42.576Z,55.15
2019-05-16T09:08:42.569Z,55.24
2019-05-16T09:09:49.360Z,55.65
2019-05-16T09:11:45.837Z,55.55
2019-05-16T09:12:43.525Z,55.85
2019-05-16T09:13:42.513Z,55.55
2019-05-16T09:14:42.522Z,55.15
2019-05-16T09:15:42.488Z,55.55
2019-05-16T09:16:42.477Z,55.65
2019-05-16T09:17:42.471Z,55.32
2019-05-16T09:18:36.427Z,55.55
2019-05-16T09:18:46.224Z,55.55
2019-05-16T09:19:42.452Z,55.85
2019-05-16T09:20:42.988Z,55.42
2019-05-16T09:21:42.440Z,55.32
2019-05-16T09:22:42.419Z,55.52
2019-05-16T09:23:42.521Z,55.72
2019-05-16T09:24:42.404Z,55.72
2019-05-16T09:25:42.389Z,55.62
2019-05-16T09:26:42.371Z,55.69
2019-05-16T09:27:42.361Z,54.12
2019-05-16T09:28:42.349Z,53.32
2019-05-16T09:29:42.343Z,52.82
2019-05-16T09:30:42.329Z,54.32
2019-05-16T09:31:42.317Z,54.29
2019-05-16T09:32:42.956Z,53.19
2019-05-16T09:33:42.297Z,51.79
2019-05-16T09:34:42.284Z,52.09
2019-05-16T09:35:42.277Z,52.09
2019-05-16T09:36:42.285Z,53.49
2019-05-16T09:37:42.265Z,53.59
2019-05-16T09:38:42.264Z,54.10
2019-05-16T09:39:42.245Z,53.69
2019-05-16T09:40:42.220Z,52.69
2019-05-16T09:41:50.961Z,52.59
2019-05-16T09:42:43.197Z,52.29
2019-05-16T09:43:42.189Z,52.27
2019-05-16T09:44:42.177Z,52.17
2019-05-16T09:45:42.166Z,53.47
2019-05-16T09:46:42.156Z,52.47
2019-05-16T09:47:42.152Z,52.57
2019-05-16T09:48:42.141Z,51.87
2019-05-16T09:49:42.123Z,51.77
2019-05-16T09:50:42.114Z,51.54
2019-05-16T09:51:42.106Z,51.67
2019-05-16T09:52:42.092Z,51.84
2019-05-16T09:53:42.085Z,52.04
2019-05-16T09:54:42.072Z,51.75
2019-05-16T09:55:42.063Z,51.25
2019-05-16T09:56:42.052Z,51.45
2019-05-16T09:57:42.041Z,50.24
2019-05-16T09:58:42.029Z,51.62
2019-05-16T09:59:42.022Z,51.25
2019-05-16T10:00:42.007Z,51.34
2019-05-16T10:01:41.995Z,50.72
2019-05-16T10:02:41.988Z,50.72
2019-05-16T10:03:41.975Z,50.32
2019-05-16T10:04:41.964Z,50.42
2019-05-16T10:05:41.954Z,50.92
2019-05-16T10:06:41.949Z,50.72
2019-05-16T10:07:41.935Z,50.52
2019-05-16T10:08:41.938Z,50.82
2019-05-16T10:09:45.326Z,50.82
2019-05-16T10:10:42.915Z,50.02
2019-05-16T10:11:42.916Z,50.60
2019-05-16T10:12:41.881Z,50.00
2019-05-16T10:13:41.868Z,50.10
2019-05-16T10:14:41.865Z,50.20
2019-05-16T10:15:41.850Z,50.10
2019-05-16T10:16:41.834Z,49.90
2019-05-16T10:17:41.857Z,50.10
2019-05-16T10:18:41.829Z,49.40
2019-05-16T10:19:41.801Z,50.70
2019-05-16T10:20:41.795Z,49.40
2019-05-16T10:21:41.780Z,50.17
2019-05-16T10:22:41.786Z,49.50
2019-05-16T10:23:41.758Z,48.88
2019-05-16T10:24:41.753Z,49.27
2019-05-16T10:25:41.740Z,49.27
2019-05-16T10:26:41.724Z,49.68
2019-05-16T10:27:41.711Z,49.27
2019-05-16T10:28:41.712Z,49.27
2019-05-16T10:29:41.692Z,49.27
2019-05-16T10:30:41.681Z,48.08
2019-05-16T10:31:49.380Z,49.38
2019-05-16T10:32:42.654Z,49.38
2019-05-16T10:33:41.659Z,49.27
2019-05-16T10:34:41.647Z,48.55
2019-05-16T10:35:41.629Z,48.68
2019-05-16T10:36:41.611Z,49.08
2019-05-16T10:37:41.604Z,48.75
2019-05-16T10:38:41.596Z,47.75
2019-05-16T10:39:41.581Z,47.86
2019-05-16T10:40:41.566Z,47.96
2019-05-16T10:41:41.554Z,47.66
2019-05-16T10:42:41.551Z,47.66
2019-05-16T10:43:41.534Z,47.75
2019-05-16T10:44:41.523Z,48.05
2019-05-16T10:45:41.511Z,48.05
2019-05-16T10:46:41.505Z,47.63
2019-05-16T10:47:41.491Z,47.75
2019-05-16T10:48:41.482Z,47.44
2019-05-16T10:49:42.106Z,47.53
2019-05-16T10:50:41.526Z,47.83
2019-05-16T10:51:41.473Z,47.33
2019-05-16T10:52:41.438Z,47.74
2019-05-16T10:54:02.323Z,47.33
2019-05-16T10:54:55.295Z,47.03
2019-05-16T10:55:42.402Z,46.06
2019-05-16T10:56:41.389Z,47.63
2019-05-16T10:57:41.473Z,47.33
2019-05-16T10:59:00.720Z,46.86
2019-05-16T11:00:09.347Z,47.36
2019-05-16T11:01:07.413Z,47.56
2019-05-16T11:01:42.338Z,47.16
2019-05-16T11:02:41.384Z,47.96
2019-05-16T11:03:41.339Z,47.96
2019-05-16T11:04:53.957Z,47.75
2019-05-16T11:05:42.287Z,47.83
2019-05-16T11:06:41.288Z,47.45
2019-05-16T11:07:41.433Z,47.53
2019-05-16T11:08:41.263Z,47.93
2019-05-16T11:09:54.831Z,47.56
2019-05-16T11:10:42.428Z,47.96
2019-05-16T11:11:41.226Z,47.93
2019-05-16T11:12:50.090Z,47.63
2019-05-16T11:13:42.201Z,47.53
2019-05-16T11:14:41.190Z,47.74
2019-05-16T11:15:41.178Z,47.53
2019-05-16T11:16:41.168Z,47.14
2019-05-16T11:17:41.155Z,47.53
2019-05-16T11:18:41.146Z,47.24
2019-05-16T11:19:41.142Z,47.33
2019-05-16T11:20:44.784Z,47.24
2019-05-16T11:21:42.111Z,47.44
2019-05-16T11:22:41.101Z,47.33
2019-05-16T11:23:41.091Z,47.53
2019-05-16T11:24:41.216Z,47.33
2019-05-16T11:25:41.071Z,46.73
2019-05-16T11:26:41.057Z,47.33
2019-05-16T11:27:41.067Z,47.74
2019-05-16T11:28:41.039Z,47.74
2019-05-16T11:29:41.022Z,47.63
2019-05-16T11:30:41.014Z,48.03
2019-05-16T11:31:41.001Z,47.86
2019-05-16T11:32:40.990Z,48.25
2019-05-16T11:33:40.978Z,48.03
2019-05-16T11:34:40.975Z,47.45
2019-05-16T11:35:40.959Z,48.33
2019-05-16T11:36:40.946Z,48.73
2019-05-16T11:37:40.936Z,48.73
2019-05-16T11:38:40.923Z,48.33
2019-05-16T11:39:40.911Z,48.73
2019-05-16T11:40:40.912Z,48.80
2019-05-16T11:41:40.891Z,48.71
2019-05-16T11:42:40.883Z,48.71
2019-05-16T11:43:40.869Z,48.71
2019-05-16T11:44:40.879Z,47.99
2019-05-16T11:45:40.848Z,48.80
2019-05-16T11:46:40.837Z,48.41
2019-05-16T11:47:40.826Z,47.99
2019-05-16T11:48:40.813Z,48.08
2019-05-16T11:49:40.802Z,48.38
2019-05-16T11:50:40.792Z,48.08
2019-05-16T11:51:40.788Z,47.89
2019-05-16T11:52:41.263Z,48.28
2019-05-16T11:53:40.757Z,48.16
2019-05-16T11:54:40.748Z,47.96
2019-05-16T11:55:51.892Z,47.89
2019-05-16T11:56:41.722Z,48.26
2019-05-16T11:57:40.713Z,48.07
2019-05-16T11:58:40.702Z,47.96
2019-05-16T11:59:40.799Z,47.86
2019-05-16T12:00:40.679Z,47.96
2019-05-16T12:01:40.669Z,48.26
2019-05-16T12:02:42.785Z,48.26
2019-05-16T12:03:40.651Z,47.66
2019-05-16T12:04:40.639Z,48.07
2019-05-16T12:05:40.627Z,48.74
2019-05-16T12:06:40.624Z,47.77
2019-05-16T12:07:44.392Z,47.74
2019-05-16T12:08:40.594Z,47.64
2019-05-16T12:09:47.078Z,47.77
2019-05-16T12:10:41.606Z,48.04
2019-05-16T12:11:40.561Z,48.24
2019-05-16T12:12:40.550Z,48.24
2019-05-16T12:13:40.539Z,48.04
2019-05-16T12:14:40.526Z,48.24
2019-05-16T12:15:40.516Z,48.14
2019-05-16T12:16:40.503Z,48.14
2019-05-16T12:17:40.493Z,48.04
2019-05-16T12:18:40.480Z,47.94
2019-05-16T12:19:43.877Z,48.24
2019-05-16T12:20:40.467Z,47.94
2019-05-16T12:21:40.451Z,48.04
2019-05-16T12:22:40.449Z,47.94
2019-05-16T12:23:40.433Z,48.14
2019-05-16T12:24:41.554Z,47.94
2019-05-16T12:25:40.408Z,48.14
2019-05-16T12:26:40.396Z,48.14
2019-05-16T12:27:42.314Z,48.22
2019-05-16T12:28:40.370Z,48.24
2019-05-16T12:29:40.359Z,47.82
2019-05-16T12:30:40.713Z,47.92
2019-05-16T12:31:54.308Z,47.82
2019-05-16T12:32:41.324Z,47.82
2019-05-16T12:33:40.315Z,47.82
2019-05-16T12:34:40.304Z,47.92
2019-05-16T12:35:40.294Z,47.92
2019-05-16T12:36:40.283Z,48.22
2019-05-16T12:37:40.274Z,47.72
2019-05-16T12:38:40.261Z,47.82
2019-05-16T12:39:40.253Z,48.32
2019-05-16T12:40:40.246Z,47.92
2019-05-16T12:41:41.462Z,47.92
2019-05-16T12:42:40.217Z,47.92
2019-05-16T12:43:48.765Z,47.92
2019-05-16T12:44:41.195Z,47.92
2019-05-16T12:45:40.187Z,47.92
2019-05-16T12:46:40.175Z,48.22
2019-05-16T12:47:40.178Z,48.11
2019-05-16T12:48:40.170Z,48.11
2019-05-16T12:49:40.164Z,48.02
2019-05-16T12:50:40.132Z,48.11
2019-05-16T12:51:40.125Z,47.42
2019-05-16T12:52:40.127Z,48.02